Spasatel Demidov — UBAO9 — position and weather

sailwx.info

Track history (hours):
 
Tides and Currents Weather Stations Pressure Air Temp Water Temp Dewpoint Dewpoint Depression Visibility Wind Speed Wind Dir Waves Ship Positions

Spasatel Demidov

Last reported at 2018-Jan-05 23:06 UTC. Time now 2018-Jan-21 18:42 UTC.
Position N 44°21' E 037°45'.
Warning: this ship's position is 15 days out of date.

Length 73 m; draft 4.7 m.

Type: SAR. MMSI: 273387420.

Date/timePositionNaut miles runAvg speedWind from/ knotsBaromVisibWave heightAir tempDewpointWater temp
2018-Jan-05 23:06N 44°21' E 037°45'1 9.4
2018-Jan-05 22:58N 44°22' E 037°45'4 9.3
2018-Jan-05 22:29N 44°26' E 037°47'4 9.4
2018-Jan-05 22:00N 44°30' E 037°50'5 9.5
2018-Jan-05 21:30N 44°34' E 037°53'2 4.1
2018-Jan-05 21:00N 44°36' E 037°55'0 0.0
2018-Jan-05 20:30N 44°36' E 037°55'0 0.0
2018-Jan-05 20:00N 44°36' E 037°55'0 0.0
2018-Jan-05 19:30N 44°36' E 037°55'0 0.0
2018-Jan-05 19:00N 44°36' E 037°55'0 0.0
2018-Jan-05 18:30N 44°36' E 037°55'0 0.0
2018-Jan-05 17:47N 44°36' E 037°55'0 0.1
2018-Jan-05 17:30N 44°36' E 037°55'0 0.0
2018-Jan-05 17:00N 44°36' E 037°55'0 0.0
2018-Jan-05 16:30N 44°36' E 037°55'0 0.3
2018-Jan-05 16:00N 44°36' E 037°55'4 7.2
2018-Jan-05 15:30N 44°33' E 037°53'510.2
2018-Jan-05 15:00N 44°28' E 037°48'5 9.9
2018-Jan-05 14:30N 44°24' E 037°46'510.0
2018-Jan-05 14:00N 44°19' E 037°44'6 9.9
2018-Jan-05 13:25N 44°13' E 037°43'  
2017-Dec-29 16:12N 43°50' E 037°35'0 0.1
2017-Dec-29 13:57N 43°50' E 037°35'0 0.0
2017-Dec-29 13:27N 43°50' E 037°35'0 0.0
2017-Dec-29 12:34N 43°50' E 037°35'0 0.0
2017-Dec-29 12:20N 43°50' E 037°35'0 0.0
2017-Dec-29 11:33N 43°50' E 037°35'0 0.0
2017-Dec-29 11:28N 43°50' E 037°35'1 1.5
2017-Dec-29 11:00N 43°50' E 037°34'0 0.4
2017-Dec-29 10:29N 43°50' E 037°35'0 0.8
2017-Dec-29 09:52N 43°50' E 037°35'0 0.1
2017-Dec-29 09:13N 43°50' E 037°35'0 0.0
2017-Dec-29 08:46N 43°50' E 037°35'0 0.0
2017-Dec-29 08:26N 43°50' E 037°35'0 0.0
2017-Dec-29 05:55N 43°50' E 037°35'0 0.0
2017-Dec-28 23:25N 43°50' E 037°35'0 0.0
2017-Dec-28 20:53N 43°50' E 037°35'0 0.0
2017-Dec-28 20:22N 43°50' E 037°35'0 0.0
2017-Dec-28 19:38N 43°50' E 037°35'0 0.0
2017-Dec-28 19:27N 43°50' E 037°35'0 0.0
2017-Dec-28 19:00N 43°50' E 037°35'0 0.0
2017-Dec-28 18:28N 43°50' E 037°35'0 0.0
2017-Dec-28 18:00N 43°50' E 037°35'0 0.0
2017-Dec-28 16:57N 43°50' E 037°35'0 0.0
2017-Dec-28 16:30N 43°50' E 037°35'0 0.0
2017-Dec-27 23:25N 43°50' E 037°35'0 0.0
2017-Dec-27 23:00N 43°50' E 037°35'0 0.0
2017-Dec-27 22:30N 43°50' E 037°35'0 0.0
2017-Dec-27 22:00N 43°50' E 037°35'0 0.0
2017-Dec-27 21:30N 43°50' E 037°35'0 0.0
2017-Dec-27 21:00N 43°50' E 037°35'0 0.0
2017-Dec-27 20:30N 43°50' E 037°35'0 0.0
2017-Dec-27 19:20N 43°50' E 037°35'0 0.0
2017-Dec-27 18:56N 43°50' E 037°35'  
Track history (hours):
 
Tides and Currents Weather Stations Pressure Air Temp Water Temp Dewpoint Dewpoint Depression Visibility Wind Speed Wind Dir Waves Ship Positions

Spasatel Demidov

Last reported at 2018-Jan-05 23:06 UTC. Time now 2018-Jan-21 18:42 UTC.
Position N 44°21' E 037°45'.
Warning: this ship's position is 15 days out of date.

Length 73 m; draft 4.7 m.

Type: SAR. MMSI: 273387420.

Date/timePositionNaut miles runAvg speedWind from/ knotsBaromVisibWave heightAir tempDewpointWater temp
2018-Jan-05 23:06N 44°21' E 037°45'1 9.4
2018-Jan-05 22:58N 44°22' E 037°45'4 9.3
2018-Jan-05 22:29N 44°26' E 037°47'4 9.4
2018-Jan-05 22:00N 44°30' E 037°50'5 9.5
2018-Jan-05 21:30N 44°34' E 037°53'2 4.1
2018-Jan-05 21:00N 44°36' E 037°55'0 0.0
2018-Jan-05 20:30N 44°36' E 037°55'0 0.0
2018-Jan-05 20:00N 44°36' E 037°55'0 0.0
2018-Jan-05 19:30N 44°36' E 037°55'0 0.0
2018-Jan-05 19:00N 44°36' E 037°55'0 0.0
2018-Jan-05 18:30N 44°36' E 037°55'0 0.0
2018-Jan-05 17:47N 44°36' E 037°55'0 0.1
2018-Jan-05 17:30N 44°36' E 037°55'0 0.0
2018-Jan-05 17:00N 44°36' E 037°55'0 0.0
2018-Jan-05 16:30N 44°36' E 037°55'0 0.3
2018-Jan-05 16:00N 44°36' E 037°55'4 7.2
2018-Jan-05 15:30N 44°33' E 037°53'510.2
2018-Jan-05 15:00N 44°28' E 037°48'5 9.9
2018-Jan-05 14:30N 44°24' E 037°46'510.0
2018-Jan-05 14:00N 44°19' E 037°44'6 9.9
2018-Jan-05 13:25N 44°13' E 037°43'  
2017-Dec-29 16:12N 43°50' E 037°35'0 0.1
2017-Dec-29 13:57N 43°50' E 037°35'0 0.0
2017-Dec-29 13:27N 43°50' E 037°35'0 0.0
2017-Dec-29 12:34N 43°50' E 037°35'0 0.0
2017-Dec-29 12:20N 43°50' E 037°35'0 0.0
2017-Dec-29 11:33N 43°50' E 037°35'0 0.0
2017-Dec-29 11:28N 43°50' E 037°35'1 1.5
2017-Dec-29 11:00N 43°50' E 037°34'0 0.4
2017-Dec-29 10:29N 43°50' E 037°35'0 0.8
2017-Dec-29 09:52N 43°50' E 037°35'0 0.1
2017-Dec-29 09:13N 43°50' E 037°35'0 0.0
2017-Dec-29 08:46N 43°50' E 037°35'0 0.0
2017-Dec-29 08:26N 43°50' E 037°35'0 0.0
2017-Dec-29 05:55N 43°50' E 037°35'0 0.0
2017-Dec-28 23:25N 43°50' E 037°35'0 0.0
2017-Dec-28 20:53N 43°50' E 037°35'0 0.0
2017-Dec-28 20:22N 43°50' E 037°35'0 0.0
2017-Dec-28 19:38N 43°50' E 037°35'0 0.0
2017-Dec-28 19:27N 43°50' E 037°35'0 0.0
2017-Dec-28 19:00N 43°50' E 037°35'0 0.0
2017-Dec-28 18:28N 43°50' E 037°35'0 0.0
2017-Dec-28 18:00N 43°50' E 037°35'0 0.0
2017-Dec-28 16:57N 43°50' E 037°35'0 0.0
2017-Dec-28 16:30N 43°50' E 037°35'0 0.0
2017-Dec-27 23:25N 43°50' E 037°35'0 0.0
2017-Dec-27 23:00N 43°50' E 037°35'0 0.0
2017-Dec-27 22:30N 43°50' E 037°35'0 0.0
2017-Dec-27 22:00N 43°50' E 037°35'0 0.0
2017-Dec-27 21:30N 43°50' E 037°35'0 0.0
2017-Dec-27 21:00N 43°50' E 037°35'0 0.0
2017-Dec-27 20:30N 43°50' E 037°35'0 0.0
2017-Dec-27 19:20N 43°50' E 037°35'0 0.0
2017-Dec-27 18:56N 43°50' E 037°35'  

Dump ship's entire track history